Time;durP1;ratioP1;P1;durP2;ratioP2;P2;SDS_P1;SDS_P2;PMS_P1;PMS_P2;Temp;Humidity;BMP_temperature;BMP_pressure;BME280_temperature;BME280_humidity;BME280_pressure;Samples;Min_cycle;Max_cycle;Signal;HPM_P1;HPM_P2
2023/09/16 00:25:57;;;;;;;12.20;9.35;;;;;;;20.99;57.79;95309.69;3667477;29;20517;-83
2023/09/16 00:28:25;;;;;;;11.57;9.20;;;;;;;21.03;57.57;95315.81;4931674;29;20122;-83
2023/09/16 00:30:51;;;;;;;10.50;8.70;;;;;;;21.07;57.52;95321.19;4931741;29;20023;-83
2023/09/16 00:33:17;;;;;;;11.98;8.80;;;;;;;21.10;57.30;95323.72;4931090;29;20028;-84
2023/09/16 00:35:42;;;;;;;10.13;8.57;;;;;;;21.10;57.31;95326.53;4948469;29;20035;-83
2023/09/16 00:38:09;;;;;;;11.50;9.65;;;;;;;21.05;57.58;95320.91;4948657;29;20159;-85
2023/09/16 00:40:36;;;;;;;12.68;9.07;;;;;;;21.09;57.73;95332.63;4931490;29;20015;-83
2023/09/16 00:43:01;;;;;;;11.48;9.55;;;;;;;21.11;57.85;95332.91;4931605;29;20035;-83
2023/09/16 00:45:27;;;;;;;12.15;9.82;;;;;;;21.11;57.45;95328.06;4931079;29;20019;-84
2023/09/16 00:47:53;;;;;;;10.93;9.55;;;;;;;21.13;57.70;95331.13;4931148;29;20031;-82
2023/09/16 00:50:18;;;;;;;11.15;9.23;;;;;;;21.12;57.62;95324.00;4948364;29;20019;-84
2023/09/16 00:52:47;;;;;;;12.10;9.40;;;;;;;21.14;57.67;95332.66;4915212;29;20387;-81
2023/09/16 00:55:13;;;;;;;12.43;9.30;;;;;;;21.13;57.75;95322.75;4931208;29;20525;-82
2023/09/16 00:57:40;;;;;;;10.02;9.02;;;;;;;21.12;57.73;95315.63;4930708;29;20063;-83
2023/09/16 01:00:08;;;;;;;11.55;9.32;;;;;;;21.10;57.58;95311.78;4931036;29;20050;-83
2023/09/16 01:02:39;;;;;;;13.07;9.15;;;;;;;21.06;57.31;95300.09;4930944;29;20038;-81
2023/09/16 01:05:05;;;;;;;11.82;9.07;;;;;;;21.13;57.49;95300.38;4931519;29;20024;-83
2023/09/16 01:07:31;;;;;;;11.40;8.77;;;;;;;21.12;57.80;95306.47;4930751;29;20046;-83
2023/09/16 01:09:56;;;;;;;10.27;9.18;;;;;;;21.14;57.64;95303.94;4930624;29;20129;-83
2023/09/16 01:12:22;;;;;;;9.95;8.88;;;;;;;21.10;57.37;95295.00;4930661;29;20031;-82
2023/09/16 01:14:48;;;;;;;11.35;8.70;;;;;;;21.08;57.65;95284.34;4914558;29;20024;-83
2023/09/16 01:17:34;;;;;;;12.55;9.02;;;;;;;21.11;57.52;95279.78;4930320;29;20486;-82
2023/09/16 01:20:02;;;;;;;11.45;8.95;;;;;;;21.08;57.84;95283.56;4930589;29;20024;-84
2023/09/16 01:22:28;;;;;;;10.55;9.38;;;;;;;21.03;57.86;95282.25;4947630;29;20517;-84
2023/09/16 01:24:54;;;;;;;13.07;9.23;;;;;;;21.02;57.63;95285.56;4948145;29;20265;-83
2023/09/16 01:27:21;;;;;;;13.27;9.52;;;;;;;20.99;57.92;95284.53;4947379;29;20527;-83
2023/09/16 01:29:47;;;;;;;10.57;8.95;;;;;;;20.98;57.62;95288.56;4930274;29;20314;-82
2023/09/16 01:32:13;;;;;;;13.68;9.75;;;;;;;20.92;58.06;95293.34;4947853;29;20343;-83
2023/09/16 01:34:52;;;;;;;12.23;9.35;;;;;;;20.82;58.17;95300.41;4931018;29;20031;-83
2023/09/16 01:37:21;;;;;;;10.48;9.20;;;;;;;20.83;58.39;95307.53;4930430;29;20057;-83
2023/09/16 01:39:49;;;;;;;10.90;9.80;;;;;;;20.80;58.59;95320.44;4914713;29;20031;-83
2023/09/16 01:42:16;;;;;;;11.38;9.77;;;;;;;20.81;58.39;95319.19;4914657;29;20059;-83
2023/09/16 01:44:41;;;;;;;12.00;9.50;;;;;;;20.83;58.30;95311.09;4930381;29;20047;-83
2023/09/16 01:47:07;;;;;;;11.38;9.57;;;;;;;20.80;58.56;95319.69;4930240;29;20102;-84
2023/09/16 01:49:32;;;;;;;13.40;9.45;;;;;;;20.73;58.79;95332.06;4929663;29;20105;-84
2023/09/16 01:51:58;;;;;;;10.20;9.00;;;;;;;20.69;59.00;95321.09;4947689;29;20027;-83
2023/09/16 01:54:23;;;;;;;12.10;9.43;;;;;;;20.65;59.12;95315.00;4914173;29;20118;-83
2023/09/16 01:56:49;;;;;;;12.00;9.40;;;;;;;20.69;58.89;95335.06;4930423;29;20128;-82
2023/09/16 01:59:14;;;;;;;10.65;9.30;;;;;;;20.71;58.95;95326.22;4947515;29;20027;-83
2023/09/16 02:01:39;;;;;;;11.35;9.52;;;;;;;20.74;58.38;95328.00;4947501;29;20038;-84
2023/09/16 02:04:06;;;;;;;15.35;9.43;;;;;;;20.71;58.68;95322.66;4930259;29;20124;-83
2023/09/16 02:06:32;;;;;;;10.65;8.80;;;;;;;20.68;58.54;95327.19;4929503;29;20027;-83
2023/09/16 02:08:57;;;;;;;11.25;9.40;;;;;;;20.69;58.72;95334.31;4947934;29;20035;-83
2023/09/16 02:11:23;;;;;;;11.77;8.20;;;;;;;20.71;58.39;95331.81;4947314;29;20027;-83
2023/09/16 02:13:48;;;;;;;12.40;8.93;;;;;;;20.69;58.35;95334.31;4947989;29;20531;-83
2023/09/16 02:16:13;;;;;;;13.35;9.90;;;;;;;20.65;58.68;95339.38;4930403;29;20376;-83
2023/09/16 02:18:39;;;;;;;12.30;9.15;;;;;;;20.66;58.15;95333.28;4930037;29;20031;-82
2023/09/16 02:21:05;;;;;;;10.05;8.05;;;;;;;20.60;58.46;95328.91;4929825;29;20057;-82
2023/09/16 02:23:30;;;;;;;9.65;7.30;;;;;;;20.58;58.39;95331.41;4913585;29;20486;-83
2023/09/16 02:26:02;;;;;;;8.77;6.78;;;;;;;20.60;58.21;95328.91;4930182;29;20123;-82
2023/09/16 02:28:27;;;;;;;11.40;8.10;;;;;;;20.55;58.60;95329.63;4929799;29;20557;-82
2023/09/16 02:30:53;;;;;;;11.45;7.88;;;;;;;20.51;58.69;95334.66;4930219;29;20118;-83
2023/09/16 02:33:18;;;;;;;11.90;7.45;;;;;;;20.53;58.68;95332.13;4930190;29;20062;-84
2023/09/16 02:35:43;;;;;;;8.73;7.55;;;;;;;20.45;58.62;95336.59;4929861;29;20118;-83
2023/09/16 02:38:09;;;;;;;9.55;7.38;;;;;;;20.38;59.06;95327.41;4947357;29;20073;-81
2023/09/16 02:40:39;;;;;;;9.77;7.53;;;;;;;20.40;58.89;95333.25;4930921;29;20479;-83
2023/09/16 02:43:04;;;;;;;10.07;7.28;;;;;;;20.37;59.39;95331.47;4933247;29;20031;-82
2023/09/16 02:45:30;;;;;;;9.20;7.28;;;;;;;20.29;59.34;95340.75;4950019;29;20452;-82
2023/09/16 02:47:55;;;;;;;9.30;7.55;;;;;;;20.24;59.53;95335.84;4950545;29;20432;-82
2023/09/16 02:50:21;;;;;;;8.98;7.03;;;;;;;20.24;59.65;95352.59;4933283;29;20110;-83
2023/09/16 02:52:46;;;;;;;9.07;7.38;;;;;;;20.22;59.81;95352.34;4932981;29;20486;-82
2023/09/16 02:55:11;;;;;;;9.98;7.88;;;;;;;20.16;59.43;95350.25;4951205;29;20027;-83
2023/09/16 02:57:37;;;;;;;8.63;7.72;;;;;;;20.17;59.80;95348.22;4950336;29;20035;-82
2023/09/16 03:00:03;;;;;;;8.55;7.18;;;;;;;20.21;59.76;95357.16;4933135;29;20039;-82
2023/09/16 03:02:29;;;;;;;11.77;8.35;;;;;;;20.20;59.40;95363.25;4950023;29;20031;-82
2023/09/16 03:04:56;;;;;;;11.77;8.98;;;;;;;20.23;59.67;95360.22;4933217;29;20030;-82
2023/09/16 03:07:21;;;;;;;11.15;8.60;;;;;;;20.15;59.74;95348.72;4932769;29;20517;-83
2023/09/16 03:09:47;;;;;;;10.32;8.60;;;;;;;20.19;59.86;95356.13;4916888;29;20024;-82
2023/09/16 03:12:12;;;;;;;10.48;8.27;;;;;;;20.17;59.62;95356.59;4917068;29;20031;-82
2023/09/16 03:14:37;;;;;;;10.65;8.18;;;;;;;20.17;59.84;95349.00;4932575;29;20121;-83
2023/09/16 03:17:03;;;;;;;8.75;7.85;;;;;;;20.17;60.04;95353.81;4933041;29;20031;-83
2023/09/16 03:19:28;;;;;;;12.45;8.88;;;;;;;20.17;59.92;95354.56;4932980;29;20170;-83
2023/09/16 03:21:54;;;;;;;10.18;9.07;;;;;;;20.16;59.77;95355.06;4950007;29;20027;-82
2023/09/16 03:24:19;;;;;;;10.43;8.48;;;;;;;20.16;59.68;95352.28;4916696;29;20122;-83
2023/09/16 03:26:45;;;;;;;10.48;8.32;;;;;;;20.11;59.83;95355.75;4917389;29;20459;-83
2023/09/16 03:29:11;;;;;;;10.32;8.07;;;;;;;19.98;60.01;95347.75;4916686;29;20038;-82
2023/09/16 03:31:37;;;;;;;9.77;8.32;;;;;;;19.94;60.41;95341.59;4949813;29;20459;-81
2023/09/16 03:34:02;;;;;;;8.82;7.63;;;;;;;19.90;60.23;95343.88;4932805;29;20098;-82
2023/09/16 03:36:28;;;;;;;10.75;7.82;;;;;;;19.90;60.29;95346.66;4950074;29;20058;-83
2023/09/16 03:38:53;;;;;;;9.63;8.43;;;;;;;19.94;60.52;95358.34;4949764;29;20023;-83
2023/09/16 03:41:19;;;;;;;10.38;8.38;;;;;;;19.97;60.05;95356.63;4949685;29;20038;-81
2023/09/16 03:43:44;;;;;;;9.02;8.10;;;;;;;19.95;60.26;95357.09;4916500;29;20027;-83
2023/09/16 03:46:09;;;;;;;11.48;8.85;;;;;;;19.99;60.32;95365.25;4915974;29;20031;-83
2023/09/16 03:48:35;;;;;;;10.88;8.27;;;;;;;19.97;59.95;95362.22;4932046;29;20036;-83
2023/09/16 03:51:02;;;;;;;13.00;8.65;;;;;;;19.94;60.61;95352.78;4932014;29;20058;-82
2023/09/16 03:53:27;;;;;;;10.77;8.80;;;;;;;19.99;60.60;95360.44;4915678;29;20027;-83
2023/09/16 03:55:52;;;;;;;10.55;9.00;;;;;;;20.05;61.64;95371.69;4916059;29;20125;-82
2023/09/16 03:58:18;;;;;;;11.40;8.05;;;;;;;20.09;61.75;95380.63;4949677;29;20554;-83
2023/09/16 04:00:44;;;;;;;10.57;9.02;;;;;;;20.07;61.00;95385.91;4932015;29;20027;-84
2023/09/16 04:03:11;;;;;;;11.55;8.68;;;;;;;20.03;60.96;95383.34;4931478;29;20035;-83
2023/09/16 04:05:37;;;;;;;10.63;8.65;;;;;;;20.07;61.27;95391.47;4932238;29;20038;-82
2023/09/16 04:08:02;;;;;;;13.15;9.10;;;;;;;20.01;61.36;95388.63;4932028;29;20067;-82
2023/09/16 04:10:28;;;;;;;10.25;8.73;;;;;;;20.09;62.40;95398.13;4916012;29;20062;-82
2023/09/16 04:12:53;;;;;;;16.63;9.57;;;;;;;20.05;62.58;95391.22;4931811;29;20039;-81
2023/09/16 04:15:18;;;;;;;10.35;9.25;;;;;;;20.11;62.18;95397.63;4931774;29;20705;-82
2023/09/16 04:17:44;;;;;;;11.63;9.32;;;;;;;20.05;62.09;95394.75;4931784;29;20031;-83
2023/09/16 04:20:10;;;;;;;13.20;9.98;;;;;;;20.02;62.83;95406.91;4931530;29;20461;-83
2023/09/16 04:22:35;;;;;;;11.15;9.20;;;;;;;20.02;62.91;95401.34;4931964;29;20482;-82
2023/09/16 04:25:01;;;;;;;11.20;9.85;;;;;;;20.00;63.47;95403.06;4915465;29;20023;-81
2023/09/16 04:27:26;;;;;;;14.85;10.18;;;;;;;20.05;63.85;95402.38;4949002;29;20043;-78
2023/09/16 04:29:52;;;;;;;14.80;9.82;;;;;;;20.06;64.85;95406.69;4931127;29;20105;-79
2023/09/16 04:32:17;;;;;;;14.05;10.25;;;;;;;20.02;65.70;95412.50;4949030;29;20454;-78
2023/09/16 04:34:42;;;;;;;12.20;10.05;;;;;;;19.99;65.83;95393.94;4948963;29;20107;-81
2023/09/16 04:37:10;;;;;;;11.07;9.52;;;;;;;20.00;65.52;95408.66;4931135;29;20478;-83
2023/09/16 04:39:36;;;;;;;15.15;10.75;;;;;;;20.01;65.49;95405.34;4931533;29;20035;-82
2023/09/16 04:42:02;;;;;;;14.60;10.20;;;;;;;20.00;65.80;95419.81;4930213;29;20355;-82
2023/09/16 04:44:30;;;;;;;15.40;10.27;;;;;;;19.96;65.58;95420.03;4948699;29;20070;-83
2023/09/16 04:46:56;;;;;;;12.60;10.23;;;;;;;19.94;65.05;95411.38;4947726;29;20031;-83
2023/09/16 04:49:22;;;;;;;17.70;9.90;;;;;;;19.91;65.28;95417.94;4915642;29;20019;-81
2023/09/16 04:51:48;;;;;;;13.63;9.98;;;;;;;19.93;65.70;95409.06;4915471;29;20024;-82
2023/09/16 04:54:13;;;;;;;16.60;10.43;;;;;;;19.89;65.93;95412.81;4914906;29;20384;-82
2023/09/16 04:56:39;;;;;;;11.80;10.35;;;;;;;19.78;66.34;95404.28;4948642;29;20035;-83
2023/09/16 04:59:05;;;;;;;15.35;10.48;;;;;;;19.84;66.19;95427.50;4915123;29;20023;-80
2023/09/16 05:01:31;;;;;;;14.90;11.18;;;;;;;19.85;66.09;95420.66;4930858;29;20842;-82
2023/09/16 05:03:56;;;;;;;14.57;10.50;;;;;;;19.86;66.31;95411.00;4914588;29;20027;-80
2023/09/16 05:06:22;;;;;;;13.85;10.52;;;;;;;19.84;66.69;95421.13;4915377;29;20073;-80
2023/09/16 05:08:48;;;;;;;14.50;11.57;;;;;;;19.79;67.05;95427.41;4930783;29;20024;-80
2023/09/16 05:11:14;;;;;;;18.80;12.05;;;;;;;19.80;67.18;95418.53;4915044;29;20071;-81
2023/09/16 05:13:39;;;;;;;14.15;11.60;;;;;;;19.76;67.18;95411.63;4915385;29;20027;-80
2023/09/16 05:16:05;;;;;;;14.75;11.48;;;;;;;19.80;66.80;95412.97;4931100;29;20027;-79
2023/09/16 05:18:30;;;;;;;13.15;11.75;;;;;;;19.80;67.02;95415.75;4931561;29;20027;-79
2023/09/16 05:20:56;;;;;;;14.48;11.32;;;;;;;19.76;67.43;95412.38;4931314;29;20035;-79
2023/09/16 05:23:23;;;;;;;13.88;12.38;;;;;;;19.77;67.45;95422.28;4915615;29;20030;-79
2023/09/16 05:25:49;;;;;;;14.20;12.13;;;;;;;19.77;67.09;95419.50;4931200;29;20581;-79
2023/09/16 05:28:15;;;;;;;15.25;12.15;;;;;;;19.78;67.10;95421.03;4915183;29;20074;-80
2023/09/16 05:30:42;;;;;;;18.50;12.57;;;;;;;19.73;67.15;95426.56;4948352;29;20061;-79
2023/09/16 05:33:09;;;;;;;15.95;13.57;;;;;;;19.69;67.63;95423.19;4930275;29;20024;-80
2023/09/16 05:35:34;;;;;;;13.98;11.88;;;;;;;19.61;67.79;95428.38;4930984;29;20483;-82
2023/09/16 05:38:00;;;;;;;19.83;13.68;;;;;;;19.50;68.37;95440.13;4947523;29;20035;-81
2023/09/16 05:40:25;;;;;;;21.80;15.18;;;;;;;19.45;68.79;95454.75;4948054;29;20024;-82
2023/09/16 05:42:51;;;;;;;18.33;13.77;;;;;;;19.39;69.36;95459.47;4930216;29;20039;-81
2023/09/16 05:45:16;;;;;;;18.75;14.75;;;;;;;19.43;69.40;95462.06;4930497;29;20031;-82
2023/09/16 05:47:44;;;;;;;18.65;14.35;;;;;;;19.46;69.68;95461.88;4947604;29;20031;-82
2023/09/16 05:50:10;;;;;;;20.88;14.02;;;;;;;19.50;69.69;95465.22;4930690;29;20034;-81
2023/09/16 05:52:35;;;;;;;18.35;13.07;;;;;;;19.54;69.96;95456.66;4930749;29;20027;-81
2023/09/16 05:55:01;;;;;;;19.15;14.20;;;;;;;19.54;69.75;95462.22;4930346;29;20031;-82
2023/09/16 05:57:26;;;;;;;19.95;13.40;;;;;;;19.56;69.98;95459.75;4914643;29;20027;-81
2023/09/16 05:59:52;;;;;;;19.63;13.77;;;;;;;19.59;69.79;95458.78;4947359;29;20050;-84
2023/09/16 06:02:17;;;;;;;20.00;13.27;;;;;;;19.65;69.20;95468.00;4946209;29;20039;-79
2023/09/16 06:04:43;;;;;;;16.63;13.70;;;;;;;19.62;69.40;95466.19;4947525;29;20361;-81
2023/09/16 06:07:09;;;;;;;18.92;13.25;;;;;;;19.58;69.70;95454.44;4930489;29;20035;-80
2023/09/16 06:09:34;;;;;;;19.02;13.88;;;;;;;19.59;69.70;95447.63;4930383;29;20035;-83
2023/09/16 06:12:00;;;;;;;18.58;15.73;;;;;;;19.51;69.47;95449.28;4947568;29;20126;-83
2023/09/16 06:14:25;;;;;;;17.60;15.07;;;;;;;19.59;69.46;95453.97;4914500;28;20031;-80
2023/09/16 06:16:51;;;;;;;17.38;14.32;;;;;;;19.61;69.45;95445.13;4917452;29;20445;-82
2023/09/16 06:19:16;;;;;;;20.30;15.07;;;;;;;19.51;69.75;95430.53;4918099;29;20027;-81
2023/09/16 06:21:41;;;;;;;19.00;14.77;;;;;;;19.52;69.37;95425.72;4933897;29;20574;-80
2023/09/16 06:24:07;;;;;;;18.88;14.68;;;;;;;19.40;69.75;95413.63;4951438;29;20034;-80
2023/09/16 06:26:32;;;;;;;19.40;14.13;;;;;;;19.37;70.25;95415.34;4917209;29;20043;-85
2023/09/16 06:28:58;;;;;;;19.77;15.13;;;;;;;19.37;70.12;95425.72;4918322;29;20070;-85
2023/09/16 06:31:23;;;;;;;20.58;15.52;;;;;;;19.41;70.12;95448.59;4918239;29;20590;-85
2023/09/16 06:33:49;;;;;;;19.42;14.55;;;;;;;19.45;69.85;95457.53;4933721;29;20031;-82
2023/09/16 06:36:15;;;;;;;18.17;14.63;;;;;;;19.51;70.41;95468.78;4949660;29;20038;-82
2023/09/16 06:38:40;;;;;;;19.90;15.90;;;;;;;19.54;70.27;95481.75;4917710;29;20023;-82
2023/09/16 06:41:06;;;;;;;19.38;14.77;;;;;;;19.54;70.26;95478.97;4933772;29;20024;-82
2023/09/16 06:43:31;;;;;;;18.77;14.43;;;;;;;19.58;69.53;95479.53;4915326;29;20027;-83
2023/09/16 06:46:03;;;;;;;18.90;14.15;;;;;;;19.52;69.50;95487.06;4917256;29;20085;-81
2023/09/16 06:48:28;;;;;;;18.23;13.93;;;;;;;19.53;69.77;95486.56;4933392;29;20367;-83
2023/09/16 06:50:54;;;;;;;18.88;15.00;;;;;;;19.52;69.44;95490.59;4950665;29;20078;-80
2023/09/16 06:53:19;;;;;;;17.15;15.07;;;;;;;19.57;69.13;95497.53;4933569;29;20058;-80
2023/09/16 06:55:47;;;;;;;20.85;15.55;;;;;;;19.52;69.24;95498.19;4950583;29;20039;-80
2023/09/16 06:58:12;;;;;;;21.33;14.55;;;;;;;19.52;69.27;95484.25;4934213;29;20379;-84
2023/09/16 07:00:38;;;;;;;17.40;15.07;;;;;;;19.51;69.14;95497.44;4932933;29;20107;-81
2023/09/16 07:03:05;;;;;;;18.40;14.88;;;;;;;19.48;69.33;95478.88;4933764;29;20035;-84
2023/09/16 07:05:31;;;;;;;17.13;14.93;;;;;;;19.49;69.73;95479.63;4917395;29;20031;-84
2023/09/16 07:07:58;;;;;;;17.23;14.55;;;;;;;19.58;69.56;95474.75;4933477;29;20090;-83
2023/09/16 07:10:25;;;;;;;17.08;15.20;;;;;;;19.60;70.00;95477.06;4935054;29;20038;-86
2023/09/16 07:12:50;;;;;;;19.52;16.23;;;;;;;19.65;69.49;95468.00;4950290;29;20059;-83
2023/09/16 07:15:16;;;;;;;20.27;15.80;;;;;;;19.68;69.84;95469.06;4933641;29;20062;-84
2023/09/16 07:17:41;;;;;;;18.08;15.73;;;;;;;19.72;70.02;95469.63;4917296;29;20406;-88
2023/09/16 07:20:07;;;;;;;22.05;17.65;;;;;;;19.75;69.71;95477.81;4934072;29;20023;-85
2023/09/16 07:22:32;;;;;;;26.20;19.88;;;;;;;19.63;70.08;95470.53;4933265;29;20042;-83
2023/09/16 07:24:57;;;;;;;23.52;19.15;;;;;;;19.59;69.99;95476.28;4917590;29;20095;-83
2023/09/16 07:27:23;;;;;;;22.75;18.75;;;;;;;19.61;70.56;95473.00;4915418;29;20102;-81
2023/09/16 07:29:48;;;;;;;24.95;19.48;;;;;;;19.66;70.50;95475.13;4932965;29;20058;-82
2023/09/16 07:32:14;;;;;;;25.58;20.58;;;;;;;19.67;70.35;95468.31;4916329;29;20602;-83
2023/09/16 07:34:40;;;;;;;24.65;20.92;;;;;;;19.62;70.28;95474.56;4916649;29;20035;-84
2023/09/16 07:37:05;;;;;;;24.88;20.67;;;;;;;19.68;70.54;95477.44;4950622;29;20027;-90
2023/09/16 07:39:33;;;;;;;22.80;18.15;;;;;;;19.79;70.71;95483.19;4950821;29;20660;-88
2023/09/16 07:41:59;;;;;;;22.30;18.88;;;;;;;19.75;70.89;95491.75;4933593;29;20019;-91
2023/09/16 07:44:26;;;;;;;21.48;18.55;;;;;;;19.79;71.05;95488.78;4916679;29;20038;-84
2023/09/16 07:46:52;;;;;;;27.20;19.83;;;;;;;19.80;71.42;95490.31;4933285;29;20031;-84
2023/09/16 07:49:17;;;;;;;23.95;19.75;;;;;;;19.87;71.12;95496.25;4917500;29;20118;-90
2023/09/16 07:51:45;;;;;;;23.92;18.40;;;;;;;19.98;70.79;95514.41;4918583;29;20027;-90
2023/09/16 07:54:13;;;;;;;23.92;18.67;;;;;;;20.06;70.61;95509.94;4951549;29;20062;-90
2023/09/16 07:56:39;;;;;;;23.48;19.48;;;;;;;20.09;70.24;95506.97;4933815;29;20043;-88
2023/09/16 07:59:04;;;;;;;22.63;18.65;;;;;;;20.16;70.21;95505.78;4917604;29;20027;-83
2023/09/16 08:01:30;;;;;;;21.17;18.77;;;;;;;20.17;70.07;95513.66;4916222;29;20031;-86
2023/09/16 08:03:55;;;;;;;22.08;18.08;;;;;;;20.22;69.60;95508.66;4933519;29;20062;-86
2023/09/16 08:06:21;;;;;;;23.42;18.83;;;;;;;20.30;69.34;95504.97;4950573;29;20027;-84
2023/09/16 08:08:49;;;;;;;23.02;18.20;;;;;;;20.36;68.68;95497.44;4935970;29;20339;-83
2023/09/16 08:11:15;;;;;;;23.65;19.42;;;;;;;20.40;68.57;95497.97;4950207;29;20031;-82
2023/09/16 08:13:41;;;;;;;21.27;18.30;;;;;;;20.45;69.30;95501.34;4932176;29;20031;-87
2023/09/16 08:16:07;;;;;;;23.58;19.40;;;;;;;20.43;69.55;95477.47;4917075;29;20418;-88
2023/09/16 08:18:32;;;;;;;24.02;19.23;;;;;;;20.54;69.41;95496.44;4932573;29;20023;-89
2023/09/16 08:20:59;;;;;;;22.48;18.80;;;;;;;20.55;69.42;95494.41;4917737;29;20069;-85
2023/09/16 08:23:24;;;;;;;23.02;17.23;;;;;;;20.57;69.14;95497.47;4916594;29;20035;-91
2023/09/16 08:25:49;;;;;;;20.90;17.95;;;;;;;20.60;68.77;95502.84;4932987;29;20058;-87
2023/09/16 08:28:15;;;;;;;23.70;17.77;;;;;;;20.72;68.07;95505.78;4916901;29;20031;-89
2023/09/16 08:30:40;;;;;;;21.95;18.23;;;;;;;20.75;67.95;95499.94;4933609;29;20125;-90
2023/09/16 08:33:05;;;;;;;25.25;19.20;;;;;;;20.83;67.39;95497.53;4917363;29;20023;-91
2023/09/16 08:35:31;;;;;;;20.42;18.17;;;;;;;20.92;67.60;95505.72;4933149;29;20036;-86
2023/09/16 08:37:58;;;;;;;21.35;17.25;;;;;;;20.94;67.48;95509.59;4917102;29;20039;-88
2023/09/16 08:40:25;;;;;;;20.40;18.20;;;;;;;21.03;67.39;95513.47;4918302;29;20485;-90
2023/09/16 08:43:01;;;;;;;21.10;18.80;;;;;;;21.06;67.15;95513.25;4933903;29;20090;-88
2023/09/16 08:45:29;;;;;;;21.15;17.58;;;;;;;21.14;66.88;95519.94;4917431;29;20063;-90
2023/09/16 08:48:01;;;;;;;19.58;17.48;;;;;;;21.17;66.85;95513.38;4932145;29;20466;-82
2023/09/16 08:50:26;;;;;;;19.50;17.40;;;;;;;21.25;66.73;95524.88;4931931;29;20031;-82
2023/09/16 08:52:53;;;;;;;19.55;17.02;;;;;;;21.32;66.66;95530.06;4931637;29;20027;-80
2023/09/16 08:55:19;;;;;;;20.05;17.35;;;;;;;21.38;66.44;95530.88;4949035;29;20066;-80
2023/09/16 08:57:50;;;;;;;19.50;17.40;;;;;;;21.40;65.50;95531.16;4948159;29;20027;-81
2023/09/16 09:00:15;;;;;;;21.15;17.13;;;;;;;21.42;64.99;95537.03;4932459;29;20607;-85
2023/09/16 09:02:41;;;;;;;20.52;17.10;;;;;;;21.37;64.96;95532.16;4915769;29;20308;-83
2023/09/16 09:05:07;;;;;;;20.77;17.05;;;;;;;21.41;65.73;95532.69;4916018;29;20078;-84
2023/09/16 09:08:01;;;;;;;17.45;15.32;;;;;;;21.53;64.74;95538.41;4931657;29;20617;-89
2023/09/16 09:10:26;;;;;;;;;;;;;;;21.68;64.33;95534.22;4949478;29;20042;-79
2023/09/16 09:12:57;;;;;;;18.75;15.23;;;;;;;21.98;64.15;95540.31;4948359;29;19914;-82
2023/09/16 09:15:23;;;;;;;15.30;13.70;;;;;;;22.49;61.85;95526.66;4930309;29;20559;-78
2023/09/16 09:17:51;;;;;;;14.45;12.85;;;;;;;22.53;60.63;95541.16;4930473;29;20098;-82
2023/09/16 09:20:22;;;;;;;13.65;12.30;;;;;;;22.69;60.73;95534.13;4929515;29;20039;-81
2023/09/16 09:22:49;;;;;;;14.15;12.00;;;;;;;23.04;59.44;95519.75;4946902;29;20411;-80
2023/09/16 09:25:19;;;;;;;12.27;10.73;;;;;;;23.65;57.99;95532.38;4913656;29;20023;-81
2023/09/16 09:27:45;;;;;;;15.10;12.15;;;;;;;23.94;58.21;95523.47;4930164;29;20043;-79
2023/09/16 09:30:10;;;;;;;12.45;11.15;;;;;;;24.43;55.54;95529.56;4930894;29;20110;-79
2023/09/16 09:32:37;;;;;;;14.95;11.55;;;;;;;24.79;55.63;95526.88;4930273;29;20034;-81
2023/09/16 09:35:06;;;;;;;14.40;11.98;;;;;;;24.93;54.32;95530.66;4948236;29;20029;-85
2023/09/16 09:37:31;;;;;;;13.35;10.88;;;;;;;24.77;53.64;95524.56;4930509;29;20038;-79
2023/09/16 09:40:09;;;;;;;11.98;10.73;;;;;;;24.81;53.67;95521.50;4930863;29;20023;-85
2023/09/16 09:42:56;;;;;;;13.43;10.30;;;;;;;24.96;52.61;95521.94;4948152;29;20038;-79
2023/09/16 09:45:24;;;;;;;10.90;9.80;;;;;;;25.13;52.44;95519.84;4948463;29;20082;-90
2023/09/16 09:47:51;;;;;;;11.10;9.57;;;;;;;25.27;51.06;95517.19;4948888;29;20023;-87
2023/09/16 09:50:18;;;;;;;10.68;9.63;;;;;;;25.72;50.69;95505.63;4930638;29;20410;-88
2023/09/16 09:52:54;;;;;;;11.65;9.90;;;;;;;26.25;50.39;95509.03;4949667;29;20047;-88
2023/09/16 09:55:21;;;;;;;11.02;9.50;;;;;;;26.64;47.14;95514.28;4950493;29;20035;-89
2023/09/16 09:57:49;;;;;;;9.73;8.50;;;;;;;27.04;46.85;95509.69;4948671;29;20042;-84
2023/09/16 10:00:16;;;;;;;10.50;8.98;;;;;;;27.06;46.95;95515.59;4930832;29;20031;-85
2023/09/16 10:02:42;;;;;;;10.60;8.00;;;;;;;27.04;46.74;95512.50;4947410;29;20037;-85
2023/09/16 10:05:12;;;;;;;10.82;8.70;;;;;;;26.99;46.87;95504.88;4930638;29;20466;-84
2023/09/16 10:07:41;;;;;;;14.15;9.73;;;;;;;27.31;46.03;95507.06;4947568;29;20035;-85
2023/09/16 10:10:29;;;;;;;7.85;6.72;;;;;;;28.34;42.74;95511.38;4931078;29;20055;-82
2023/09/16 10:12:55;;;;;;;8.23;6.57;;;;;;;28.54;42.28;95507.88;4930008;29;20090;-82
2023/09/16 10:15:25;;;;;;;6.88;6.18;;;;;;;29.04;41.00;95501.25;4930457;29;20519;-82
2023/09/16 10:17:51;;;;;;;9.90;7.72;;;;;;;28.92;40.00;95493.53;4947960;29;20031;-81
2023/09/16 10:20:17;;;;;;;10.57;7.20;;;;;;;28.90;40.88;95481.97;4929687;29;20038;-80
2023/09/16 10:22:43;;;;;;;13.02;8.13;;;;;;;29.50;39.84;95486.88;4948069;29;20487;-82
2023/09/16 10:25:09;;;;;;;9.52;6.97;;;;;;;30.77;37.15;95494.78;4929470;29;20027;-81
2023/09/16 10:27:45;;;;;;;8.98;6.75;;;;;;;30.67;37.31;95494.50;4930739;29;20046;-80
2023/09/16 10:30:13;;;;;;;6.93;6.15;;;;;;;30.84;37.76;95494.81;4929902;29;20043;-79
2023/09/16 10:32:39;;;;;;;9.75;6.95;;;;;;;31.38;36.06;95493.00;4947503;29;20031;-81
2023/09/16 10:35:05;;;;;;;7.45;6.43;;;;;;;30.92;36.55;95487.13;4950007;29;20031;-90
2023/09/16 10:37:31;;;;;;;7.10;6.38;;;;;;;32.08;34.88;95502.44;4949514;29;20039;-87
2023/09/16 10:40:07;;;;;;;9.55;6.30;;;;;;;31.56;35.22;95491.16;4947223;29;20582;-87
2023/09/16 10:42:36;;;;;;;8.18;6.18;;;;;;;31.01;36.79;95473.72;4913009;29;20067;-81
2023/09/16 10:45:03;;;;;;;6.85;6.15;;;;;;;30.94;36.96;95478.03;4930273;29;20333;-82
2023/09/16 10:47:28;;;;;;;7.80;6.88;;;;;;;30.66;37.08;95481.63;4913527;29;20055;-81
2023/09/16 10:49:54;;;;;;;8.07;6.55;;;;;;;31.05;36.45;95472.03;4914040;29;20779;-82
2023/09/16 10:52:37;;;;;;;7.95;6.43;;;;;;;30.74;36.44;95476.81;4913052;29;20380;-81
2023/09/16 10:55:13;;;;;;;7.63;6.07;;;;;;;32.35;33.57;95465.88;4930233;29;20118;-80
2023/09/16 10:58:01;;;;;;;8.18;6.03;;;;;;;31.90;34.71;95465.28;4930552;29;20387;-81
2023/09/16 11:00:27;;;;;;;8.55;6.57;;;;;;;31.29;36.17;95458.69;4913888;29;20404;-79
2023/09/16 11:02:58;;;;;;;8.50;6.72;;;;;;;32.76;33.74;95454.03;4917972;29;20028;-79
2023/09/16 11:05:23;;;;;;;6.55;5.35;;;;;;;33.91;32.06;95455.59;4921452;29;20038;-83
2023/09/16 11:07:49;;;;;;;7.05;5.47;;;;;;;33.49;31.22;95461.94;4919584;29;20118;-83
2023/09/16 11:10:15;;;;;;;6.40;4.97;;;;;;;34.54;30.16;95446.75;4918212;29;20023;-82
2023/09/16 11:12:40;;;;;;;8.30;5.22;;;;;;;35.23;29.16;95443.88;4917252;29;20039;-80
2023/09/16 11:15:07;;;;;;;5.53;4.60;;;;;;;34.19;29.30;95438.09;4917487;29;20110;-81
2023/09/16 11:17:33;;;;;;;6.43;4.95;;;;;;;35.32;28.20;95430.97;4948274;29;20019;-81
2023/09/16 11:20:21;;;;;;;7.22;5.03;;;;;;;36.35;27.33;95434.78;4933370;29;20025;-82
2023/09/16 11:22:50;;;;;;;8.00;5.53;;;;;;;35.73;27.71;95426.44;4933324;29;20115;-82
2023/09/16 11:25:16;;;;;;;6.90;5.72;;;;;;;34.97;28.74;95428.19;4916223;29;20031;-82
2023/09/16 11:27:41;;;;;;;6.55;4.93;;;;;;;34.46;29.44;95426.06;4932962;29;20085;-82
2023/09/16 11:30:12;;;;;;;7.05;5.75;;;;;;;34.11;29.77;95416.66;4932228;29;20066;-82
2023/09/16 11:32:42;;;;;;;5.93;4.85;;;;;;;33.65;30.28;95420.59;4932177;29;20041;-81
2023/09/16 11:35:08;;;;;;;5.45;4.90;;;;;;;33.30;30.16;95413.97;4916477;29;20130;-82
2023/09/16 11:37:34;;;;;;;7.32;5.32;;;;;;;32.84;31.40;95416.25;4932846;29;20500;-82
2023/09/16 11:40:02;;;;;;;8.13;5.50;;;;;;;32.46;31.35;95420.72;4917070;29;20489;-81
2023/09/16 11:42:28;;;;;;;5.50;4.95;;;;;;;32.11;32.12;95419.59;4931509;29;20062;-81
2023/09/16 11:44:55;;;;;;;5.65;4.88;;;;;;;31.59;32.11;95421.81;4932393;29;20027;-80
2023/09/16 11:47:20;;;;;;;9.20;4.65;;;;;;;31.41;33.54;95414.41;4915666;29;20062;-81